Burning Fork, Kentucky
Current Conditions -  °F | °C
As of 4:53 AM on Monday 22 Dec 2014 (Local Time) from KJKL Reporting Station
Overcast Overcast  
Wind Chill: 39°   Ceiling: 4100
Heat Index: 39°   Visibility: 10mi
Dew Point: 30°   Wind: 0mph
Humidity: 70%   Direction: NA
Pressure: 30.01"   Gusts: NA
Location:  37.7261°N, 83.0786°W
Report Text: KJKL 220953Z AUTO 00000KT 10SM BKN041 OVC075 04/M01 A3001 RMK AO2 SLP167 T00391011
Loading
Personal Weather Stations






























Interactive Weather Map New forecast layout! Learn more

10-Day Weather Forecast

Advertisements
Track Severe Weather on mobile